createdAt,value
2019-03-19T00:01:02.895Z,12.07
2019-03-19T00:03:30.350Z,19.90
2019-03-19T00:05:57.789Z,11.83
2019-03-19T00:08:25.174Z,15.93
2019-03-19T00:10:52.624Z,14.43
2019-03-19T00:13:19.951Z,12.07
2019-03-19T00:15:47.359Z,18.73
2019-03-19T00:18:14.798Z,14.53
2019-03-19T00:20:42.227Z,15.07
2019-03-19T00:23:09.602Z,12.47
2019-03-19T00:25:36.914Z,11.70
2019-03-19T00:28:04.437Z,9.00
2019-03-19T00:30:31.897Z,16.70
2019-03-19T00:32:59.275Z,15.00
2019-03-19T00:35:26.713Z,9.80
2019-03-19T00:37:54.194Z,12.53
2019-03-19T00:40:21.582Z,11.53
2019-03-19T00:42:49.073Z,11.30
2019-03-19T00:45:16.561Z,13.07
2019-03-19T00:47:44.041Z,11.33
2019-03-19T00:50:11.509Z,10.07
2019-03-19T00:52:39.029Z,20.27
2019-03-19T00:55:06.561Z,12.67
2019-03-19T00:57:33.907Z,19.77
2019-03-19T01:00:01.385Z,27.43
2019-03-19T01:02:28.829Z,12.90
2019-03-19T01:04:56.192Z,17.93
2019-03-19T01:07:23.665Z,10.83
2019-03-19T01:09:52.957Z,14.17
2019-03-19T01:12:20.368Z,12.63
2019-03-19T01:14:47.752Z,14.80
2019-03-19T01:17:15.209Z,12.10
2019-03-19T01:19:42.562Z,13.90
2019-03-19T01:22:09.955Z,14.50
2019-03-19T01:24:37.287Z,13.93
2019-03-19T01:27:04.757Z,15.07
2019-03-19T01:29:32.211Z,10.17
2019-03-19T01:31:59.567Z,10.17
2019-03-19T01:34:26.891Z,11.80
2019-03-19T01:36:54.275Z,8.23
2019-03-19T01:39:21.629Z,7.10
2019-03-19T01:41:48.965Z,13.80
2019-03-19T01:44:16.419Z,9.47
2019-03-19T01:46:43.785Z,10.57
2019-03-19T01:49:11.231Z,8.17
2019-03-19T01:51:38.705Z,11.47
2019-03-19T01:54:06.155Z,16.43
2019-03-19T01:56:33.657Z,13.43
2019-03-19T01:59:01.007Z,11.37
2019-03-19T02:01:28.478Z,10.47
2019-03-19T02:03:55.904Z,9.27
2019-03-19T02:06:23.479Z,11.03
2019-03-19T02:08:50.961Z,8.63
2019-03-19T02:11:18.346Z,9.40
2019-03-19T02:13:45.779Z,12.47
2019-03-19T02:16:13.131Z,13.53
2019-03-19T02:18:40.512Z,9.33
2019-03-19T02:21:07.971Z,7.97
2019-03-19T02:23:35.376Z,8.97
2019-03-19T02:26:02.863Z,7.80
2019-03-19T02:28:30.226Z,7.17
2019-03-19T02:30:57.597Z,4.53
2019-03-19T02:33:25.023Z,10.60
2019-03-19T02:35:52.507Z,4.33
2019-03-19T02:38:19.951Z,8.53
2019-03-19T02:40:47.402Z,4.43
2019-03-19T02:43:14.815Z,5.43
2019-03-19T02:45:42.257Z,13.70
2019-03-19T02:48:09.615Z,6.13
2019-03-19T02:50:37.801Z,9.93
2019-03-19T02:53:05.130Z,4.07
2019-03-19T02:55:32.574Z,4.80
2019-03-19T02:58:00.046Z,6.60
2019-03-19T03:00:27.520Z,6.80
2019-03-19T03:02:54.913Z,3.77
2019-03-19T03:05:22.341Z,5.33
2019-03-19T03:07:49.798Z,5.90
2019-03-19T03:10:17.246Z,7.90
2019-03-19T03:12:44.826Z,4.50
2019-03-19T03:15:12.385Z,6.53
2019-03-19T03:17:39.927Z,5.37
2019-03-19T03:20:07.500Z,4.27
2019-03-19T03:22:34.954Z,5.00
2019-03-19T03:25:02.440Z,6.27
2019-03-19T03:27:29.893Z,4.70
2019-03-19T03:29:57.315Z,5.23
2019-03-19T03:32:24.993Z,5.83
2019-03-19T03:34:52.431Z,3.07
2019-03-19T03:37:20.993Z,2.53
2019-03-19T03:39:48.430Z,4.87
2019-03-19T03:42:15.892Z,6.50
2019-03-19T03:44:43.334Z,7.53
2019-03-19T03:47:10.775Z,3.27
2019-03-19T03:49:38.116Z,7.00
2019-03-19T03:52:05.575Z,8.70
2019-03-19T03:54:33.001Z,7.47
2019-03-19T03:57:02.288Z,5.13
2019-03-19T03:59:29.725Z,5.07
2019-03-19T04:01:57.071Z,9.73
2019-03-19T04:04:24.590Z,10.23
2019-03-19T04:06:52.061Z,5.20
2019-03-19T04:09:19.561Z,5.10
2019-03-19T04:11:46.917Z,5.40
2019-03-19T04:14:14.281Z,7.47
2019-03-19T04:16:41.773Z,4.53
2019-03-19T04:19:09.220Z,8.77
2019-03-19T04:21:36.673Z,11.07
2019-03-19T04:24:04.097Z,3.23
2019-03-19T04:26:31.589Z,3.80
2019-03-19T04:28:59.025Z,6.17
2019-03-19T04:31:26.449Z,11.23
2019-03-19T04:33:54.069Z,5.17
2019-03-19T04:36:21.525Z,6.57
2019-03-19T04:38:49.233Z,4.80
2019-03-19T04:41:16.693Z,3.50
2019-03-19T04:43:44.167Z,21.03
2019-03-19T04:46:11.767Z,4.37
2019-03-19T04:48:39.239Z,3.70
2019-03-19T04:51:06.731Z,6.77
2019-03-19T04:53:34.184Z,4.67
2019-03-19T04:56:01.559Z,15.90
2019-03-19T04:58:28.941Z,6.53
2019-03-19T05:00:56.283Z,9.97
2019-03-19T05:03:23.781Z,6.30
2019-03-19T05:05:51.220Z,6.20
2019-03-19T05:08:18.654Z,4.00
2019-03-19T05:10:46.133Z,7.47
2019-03-19T05:13:13.494Z,6.93
2019-03-19T05:15:40.955Z,12.83
2019-03-19T05:18:08.708Z,5.73
2019-03-19T05:20:36.154Z,6.33
2019-03-19T05:23:03.678Z,7.53
2019-03-19T05:25:31.127Z,7.77
2019-03-19T05:27:59.956Z,3.63
2019-03-19T05:30:27.367Z,3.63
2019-03-19T05:32:54.715Z,33.20
2019-03-19T05:35:22.156Z,36.53
2019-03-19T05:37:49.650Z,31.40
2019-03-19T05:40:17.491Z,27.70
2019-03-19T05:42:44.875Z,22.33
2019-03-19T05:45:12.938Z,22.33
2019-03-19T05:47:40.918Z,13.57
2019-03-19T05:50:09.275Z,21.13
2019-03-19T05:52:36.641Z,12.37
2019-03-19T05:55:04.567Z,11.27
2019-03-19T05:57:32.357Z,17.97
2019-03-19T05:59:59.823Z,12.67
2019-03-19T06:02:27.327Z,7.90
2019-03-19T06:04:54.799Z,7.97
2019-03-19T06:07:22.296Z,9.47
2019-03-19T06:09:50.859Z,8.37
2019-03-19T06:12:18.315Z,5.47
2019-03-19T06:14:45.656Z,5.97
2019-03-19T06:17:13.076Z,16.57
2019-03-19T06:19:40.812Z,9.90
2019-03-19T06:22:08.246Z,10.50
2019-03-19T06:24:35.751Z,6.90
2019-03-19T06:27:03.225Z,6.43
2019-03-19T06:29:30.687Z,7.07
2019-03-19T06:31:58.148Z,6.27
2019-03-19T06:34:25.658Z,9.77
2019-03-19T06:36:53.132Z,6.80
2019-03-19T06:39:20.494Z,4.97
2019-03-19T06:41:47.978Z,7.97
2019-03-19T06:44:15.432Z,4.17
2019-03-19T06:46:43.025Z,9.97
2019-03-19T06:49:10.523Z,9.43
2019-03-19T06:51:38.061Z,32.97
2019-03-19T06:54:05.559Z,7.70
2019-03-19T06:56:33.006Z,9.57
2019-03-19T06:59:00.481Z,10.57
2019-03-19T07:01:27.845Z,7.60
2019-03-19T07:03:55.378Z,9.67
2019-03-19T07:06:24.826Z,11.07
2019-03-19T07:09:04.404Z,11.00
2019-03-19T07:11:33.244Z,9.53
2019-03-19T07:14:00.812Z,10.57
2019-03-19T07:16:28.278Z,14.80
2019-03-19T07:18:55.840Z,9.60
2019-03-19T07:21:23.368Z,8.63
2019-03-19T07:23:50.813Z,10.17
2019-03-19T07:26:19.391Z,17.90
2019-03-19T07:28:46.846Z,13.80
2019-03-19T07:31:14.196Z,17.70
2019-03-19T07:33:43.946Z,11.23
2019-03-19T07:36:11.585Z,18.40
2019-03-19T07:38:39.062Z,13.40
2019-03-19T07:41:06.568Z,16.53
2019-03-19T07:43:34.019Z,14.60
2019-03-19T07:46:01.480Z,14.43
2019-03-19T07:48:28.843Z,13.13
2019-03-19T07:50:56.268Z,12.03
2019-03-19T07:53:23.726Z,14.53
2019-03-19T07:55:53.383Z,17.80
2019-03-19T07:58:31.372Z,25.97
2019-03-19T08:00:49.638Z,18.77
2019-03-19T08:03:16.965Z,21.83
2019-03-19T08:05:44.311Z,19.80
2019-03-19T08:08:11.783Z,17.47
2019-03-19T08:10:39.339Z,18.77
2019-03-19T08:13:06.790Z,22.33
2019-03-19T08:15:34.288Z,20.90
2019-03-19T08:18:01.788Z,22.23
2019-03-19T08:20:29.259Z,12.67
2019-03-19T08:22:57.594Z,17.70
2019-03-19T08:25:24.958Z,12.97
2019-03-19T08:27:52.446Z,12.63
2019-03-19T08:30:19.922Z,16.60
2019-03-19T08:32:47.389Z,24.00
2019-03-19T08:35:15.852Z,21.17
2019-03-19T08:37:43.457Z,16.97
2019-03-19T08:40:19.989Z,14.20
2019-03-19T08:42:47.833Z,18.03
2019-03-19T08:45:16.128Z,22.23
2019-03-19T08:47:43.565Z,17.70
2019-03-19T08:50:13.278Z,16.87
2019-03-19T08:52:40.737Z,12.03
2019-03-19T08:55:08.756Z,19.27
2019-03-19T08:57:36.993Z,19.67
2019-03-19T09:00:06.223Z,17.77
2019-03-19T09:02:35.130Z,17.53
2019-03-19T09:05:03.157Z,14.47
2019-03-19T09:07:31.007Z,18.27
2019-03-19T09:09:58.384Z,22.03
2019-03-19T09:12:25.897Z,18.33
2019-03-19T09:14:57.421Z,15.33
2019-03-19T09:19:57.815Z,12.80
2019-03-19T09:22:29.547Z,15.87
2019-03-19T09:24:54.683Z,18.77
2019-03-19T09:27:22.466Z,24.47
2019-03-19T09:29:49.811Z,13.50
2019-03-19T09:32:17.267Z,17.13
2019-03-19T09:34:45.002Z,19.90
2019-03-19T09:37:16.142Z,10.20
2019-03-19T09:39:43.596Z,19.03
2019-03-19T09:42:11.751Z,13.87
2019-03-19T09:44:40.094Z,14.03
2019-03-19T09:47:07.511Z,11.03
2019-03-19T09:49:35.059Z,15.33
2019-03-19T09:52:04.225Z,15.93
2019-03-19T09:54:32.994Z,12.83
2019-03-19T09:57:00.554Z,13.53
2019-03-19T09:59:28.146Z,18.20
2019-03-19T10:01:55.593Z,6.50
2019-03-19T10:04:23.027Z,9.93
2019-03-19T10:06:50.694Z,7.27
2019-03-19T10:09:20.461Z,6.43
2019-03-19T10:11:47.976Z,6.43
2019-03-19T10:14:16.276Z,11.03
2019-03-19T10:16:45.420Z,9.27
2019-03-19T10:27:28.988Z,10.50
2019-03-19T10:29:56.456Z,8.30
2019-03-19T10:32:23.952Z,8.07
2019-03-19T10:34:51.344Z,8.63
2019-03-19T10:37:18.757Z,5.27
2019-03-19T10:39:46.262Z,8.23
2019-03-19T10:42:13.780Z,8.60
2019-03-19T10:44:41.438Z,8.90
2019-03-19T10:47:08.894Z,5.37
2019-03-19T10:49:36.280Z,7.87
2019-03-19T10:52:03.934Z,4.27
2019-03-19T10:54:31.326Z,6.27
2019-03-19T10:56:58.810Z,6.93
2019-03-19T10:59:26.307Z,9.27
2019-03-19T11:01:53.795Z,4.63
2019-03-19T11:04:21.316Z,8.23
2019-03-19T11:06:48.784Z,7.67
2019-03-19T11:09:16.300Z,9.50
2019-03-19T11:11:43.778Z,4.47
2019-03-19T11:14:11.238Z,7.80
2019-03-19T11:16:38.734Z,8.93
2019-03-19T11:19:06.237Z,4.50
2019-03-19T11:21:33.727Z,7.37
2019-03-19T11:24:01.182Z,4.67
2019-03-19T11:26:28.720Z,7.33
2019-03-19T11:28:57.074Z,5.60
2019-03-19T11:31:24.592Z,8.27
2019-03-19T11:33:52.063Z,7.73
2019-03-19T11:36:19.532Z,3.60
2019-03-19T11:38:47.066Z,3.73
2019-03-19T11:41:14.508Z,4.93
2019-03-19T11:43:41.872Z,6.07
2019-03-19T11:46:09.265Z,6.70
2019-03-19T11:48:36.776Z,3.93
2019-03-19T11:51:04.256Z,9.83
2019-03-19T11:53:31.610Z,3.20
2019-03-19T11:55:58.968Z,5.47
2019-03-19T11:58:26.348Z,6.87
2019-03-19T12:00:56.597Z,8.93
2019-03-19T12:03:24.064Z,5.73
2019-03-19T12:05:51.555Z,9.93
2019-03-19T12:08:19.030Z,7.77
2019-03-19T12:10:46.501Z,6.23
2019-03-19T12:13:13.892Z,2.73
2019-03-19T12:15:41.393Z,8.23
2019-03-19T12:18:08.836Z,8.20
2019-03-19T12:20:36.296Z,1.93
2019-03-19T12:23:04.135Z,4.47
2019-03-19T12:25:31.642Z,7.53
2019-03-19T12:27:59.061Z,3.63
2019-03-19T12:30:26.711Z,6.27
2019-03-19T12:32:54.721Z,3.10
2019-03-19T12:35:22.211Z,4.37
2019-03-19T12:37:49.662Z,7.17
2019-03-19T12:40:17.235Z,3.70
2019-03-19T12:42:44.599Z,3.63
2019-03-19T12:45:13.113Z,11.10
2019-03-19T12:47:40.572Z,6.17
2019-03-19T12:50:09.817Z,13.17
2019-03-19T12:52:37.228Z,6.13
2019-03-19T12:55:23.762Z,8.63
2019-03-19T12:57:51.209Z,8.87
2019-03-19T13:00:19.502Z,5.47
2019-03-19T13:02:46.898Z,5.53
2019-03-19T13:05:14.377Z,4.17
2019-03-19T13:07:41.843Z,5.87
2019-03-19T13:10:11.269Z,7.27
2019-03-19T13:12:38.672Z,8.43
2019-03-19T13:15:06.393Z,5.60
2019-03-19T13:17:33.773Z,12.23
2019-03-19T13:20:01.262Z,2.90
2019-03-19T13:22:28.780Z,10.23
2019-03-19T13:24:56.252Z,7.73
2019-03-19T13:27:23.773Z,3.20
2019-03-19T13:29:51.252Z,4.40
2019-03-19T13:32:19.009Z,5.70
2019-03-19T13:34:46.519Z,4.83
2019-03-19T13:37:13.974Z,4.93
2019-03-19T13:39:41.473Z,5.80
2019-03-19T13:42:08.918Z,2.53
2019-03-19T13:44:36.401Z,6.60
2019-03-19T13:47:03.923Z,2.43
2019-03-19T13:49:31.357Z,3.97
2019-03-19T13:51:58.806Z,3.40
2019-03-19T13:54:26.328Z,4.67
2019-03-19T13:56:53.813Z,4.47
2019-03-19T13:59:21.268Z,2.77
2019-03-19T14:01:48.727Z,2.80
2019-03-19T14:04:16.350Z,9.17
2019-03-19T14:06:43.856Z,4.37
2019-03-19T14:09:11.316Z,6.37
2019-03-19T14:11:40.456Z,4.73
2019-03-19T14:14:07.912Z,5.53
2019-03-19T14:16:36.406Z,7.60
2019-03-19T14:19:03.996Z,2.97
2019-03-19T14:21:31.366Z,4.73
2019-03-19T14:23:58.880Z,3.13
2019-03-19T14:26:26.296Z,5.87
2019-03-19T14:28:53.794Z,3.73
2019-03-19T14:31:21.212Z,3.47
2019-03-19T14:33:48.672Z,6.67
2019-03-19T14:36:16.045Z,5.73
2019-03-19T14:38:47.319Z,4.13
2019-03-19T14:41:12.863Z,4.23
2019-03-19T14:43:40.365Z,6.33
2019-03-19T14:46:07.851Z,3.57
2019-03-19T14:48:35.293Z,4.27
2019-03-19T14:51:02.645Z,4.40
2019-03-19T14:53:30.398Z,4.27
2019-03-19T14:55:57.866Z,2.80
2019-03-19T14:58:25.320Z,4.00
2019-03-19T15:00:52.808Z,5.20
2019-03-19T15:03:20.268Z,5.10
2019-03-19T15:08:53.030Z,3.87
2019-03-19T15:11:20.456Z,5.30
2019-03-19T15:13:47.918Z,3.33
2019-03-19T15:16:15.494Z,3.50
2019-03-19T15:18:42.885Z,6.27
2019-03-19T15:21:10.344Z,7.20
2019-03-19T15:23:37.855Z,7.47
2019-03-19T15:29:00.697Z,3.07
2019-03-19T15:31:30.033Z,7.40
2019-03-19T15:33:57.393Z,6.70
2019-03-19T15:36:25.154Z,4.57
2019-03-19T15:38:52.631Z,9.73
2019-03-19T15:41:20.133Z,6.40
2019-03-19T15:43:47.695Z,3.70
2019-03-19T15:46:15.174Z,6.10
2019-03-19T15:48:42.630Z,6.30
2019-03-19T15:51:10.016Z,4.83
2019-03-19T15:53:37.348Z,8.97
2019-03-19T15:56:04.855Z,5.53
2019-03-19T15:58:32.398Z,7.03
2019-03-19T16:00:59.997Z,8.10
2019-03-19T16:03:27.513Z,6.73
2019-03-19T16:05:54.908Z,4.73
2019-03-19T16:08:22.397Z,7.47
2019-03-19T16:10:49.871Z,5.10
2019-03-19T16:13:19.845Z,7.73
2019-03-19T16:15:47.360Z,7.80
2019-03-19T16:18:14.817Z,4.10
2019-03-19T16:20:42.176Z,8.83
2019-03-19T16:23:12.558Z,6.57
2019-03-19T16:25:40.055Z,3.17
2019-03-19T16:28:07.551Z,10.80
2019-03-19T16:30:35.019Z,4.63
2019-03-19T16:33:02.497Z,5.67
2019-03-19T16:35:29.989Z,7.07
2019-03-19T16:37:57.470Z,7.20
2019-03-19T16:40:25.692Z,2.90
2019-03-19T16:42:53.181Z,6.10
2019-03-19T16:45:20.727Z,6.07
2019-03-19T16:47:48.412Z,3.43
2019-03-19T16:50:15.950Z,7.50
2019-03-19T16:52:43.397Z,5.37
2019-03-19T16:55:11.403Z,6.57
2019-03-19T16:57:38.877Z,4.97
2019-03-19T17:00:09.125Z,6.53
2019-03-19T17:02:36.621Z,8.73
2019-03-19T17:05:06.114Z,10.63
2019-03-19T17:07:36.648Z,7.10
2019-03-19T17:10:09.327Z,6.53
2019-03-19T17:12:37.110Z,4.53
2019-03-19T17:15:04.828Z,10.43
2019-03-19T17:17:32.601Z,5.13
2019-03-19T17:20:00.031Z,5.27
2019-03-19T17:22:27.417Z,12.10
2019-03-19T17:24:54.954Z,11.73
2019-03-19T17:27:27.447Z,3.60
2019-03-19T17:29:52.510Z,8.47
2019-03-19T17:32:20.137Z,7.67
2019-03-19T17:34:47.642Z,8.50
2019-03-19T17:37:15.124Z,7.03
2019-03-19T17:39:42.592Z,8.47
2019-03-19T17:42:10.053Z,8.73
2019-03-19T17:44:37.581Z,7.67
2019-03-19T17:47:05.032Z,7.17
2019-03-19T17:49:32.509Z,8.27
2019-03-19T17:51:59.942Z,6.93
2019-03-19T17:54:27.508Z,7.33
2019-03-19T17:56:54.924Z,8.50
2019-03-19T17:59:22.304Z,6.60
2019-03-19T18:01:49.922Z,8.77
2019-03-19T18:04:17.425Z,6.03
2019-03-19T18:06:44.882Z,4.30
2019-03-19T18:09:12.328Z,8.33
2019-03-19T18:11:39.907Z,8.33
2019-03-19T18:14:07.317Z,6.70
2019-03-19T18:16:34.855Z,7.90
2019-03-19T18:19:02.422Z,11.57
2019-03-19T18:21:29.900Z,6.10
2019-03-19T18:23:57.428Z,6.30
2019-03-19T18:26:24.934Z,7.20
2019-03-19T18:28:53.810Z,9.37
2019-03-19T18:31:21.215Z,16.63
2019-03-19T18:33:49.082Z,14.33
2019-03-19T18:36:16.585Z,17.73
2019-03-19T18:38:44.040Z,4.70
2019-03-19T18:41:11.697Z,6.70
2019-03-19T18:43:39.173Z,5.83
2019-03-19T18:46:06.661Z,7.43
2019-03-19T18:48:34.128Z,10.43
2019-03-19T18:51:03.536Z,6.67
2019-03-19T18:53:30.977Z,8.07
2019-03-19T18:55:58.493Z,6.17
2019-03-19T18:58:25.958Z,6.17
2019-03-19T19:00:53.420Z,7.63
2019-03-19T19:03:20.960Z,11.27
2019-03-19T19:05:48.564Z,5.20
2019-03-19T19:08:15.959Z,10.00
2019-03-19T19:10:43.416Z,8.83
2019-03-19T19:13:11.042Z,6.43
2019-03-19T19:15:38.474Z,6.97
2019-03-19T19:18:05.969Z,10.27
2019-03-19T19:20:33.474Z,4.83
2019-03-19T19:23:02.894Z,6.47
2019-03-19T19:25:30.214Z,3.73
2019-03-19T19:28:02.246Z,7.93
2019-03-19T19:30:29.733Z,4.67
2019-03-19T19:33:02.144Z,7.37
2019-03-19T19:35:27.696Z,6.00
2019-03-19T19:37:57.308Z,10.97
2019-03-19T19:40:25.013Z,9.83
2019-03-19T19:42:52.412Z,7.93
2019-03-19T19:45:19.993Z,11.60
2019-03-19T19:47:47.708Z,15.13
2019-03-19T19:50:15.204Z,8.40
2019-03-19T19:52:42.694Z,5.87
2019-03-19T19:55:10.327Z,6.77
2019-03-19T19:57:37.900Z,8.57
2019-03-19T20:02:57.060Z,9.10
2019-03-19T20:05:24.710Z,11.27
2019-03-19T20:07:52.366Z,7.20
2019-03-19T20:10:19.926Z,7.07
2019-03-19T20:12:49.723Z,8.43
2019-03-19T20:15:17.187Z,4.70
2019-03-19T20:17:44.941Z,8.40
2019-03-19T20:20:14.113Z,8.90
2019-03-19T20:22:41.591Z,11.73
2019-03-19T20:25:10.421Z,7.17
2019-03-19T20:27:37.883Z,9.27
2019-03-19T20:30:07.162Z,9.47
2019-03-19T20:32:34.656Z,9.23
2019-03-19T20:35:02.675Z,9.70
2019-03-19T20:37:38.069Z,11.43
2019-03-19T20:40:07.514Z,13.27
2019-03-19T20:42:34.977Z,8.27
2019-03-19T20:45:02.462Z,8.17
2019-03-19T20:47:36.429Z,9.90
2019-03-19T20:50:05.073Z,11.53
2019-03-19T20:52:32.570Z,7.73
2019-03-19T20:55:02.286Z,12.33
2019-03-19T20:57:29.961Z,11.70
2019-03-19T20:59:57.468Z,8.37
2019-03-19T21:02:24.961Z,10.70
2019-03-19T21:04:52.443Z,6.73
2019-03-19T21:07:20.148Z,10.03
2019-03-19T21:09:47.734Z,8.73
2019-03-19T21:12:15.199Z,6.47
2019-03-19T21:14:42.622Z,5.03
2019-03-19T21:17:10.148Z,17.40
2019-03-19T21:19:37.598Z,10.30
2019-03-19T21:22:05.068Z,11.73
2019-03-19T21:24:32.560Z,8.27
2019-03-19T21:27:00.050Z,5.50
2019-03-19T21:29:29.234Z,8.60
2019-03-19T21:31:56.720Z,10.83
2019-03-19T21:34:24.101Z,6.63
2019-03-19T21:36:52.700Z,7.30
2019-03-19T21:39:20.250Z,6.97
2019-03-19T21:41:47.752Z,9.47
2019-03-19T21:44:15.184Z,9.40
2019-03-19T21:46:42.647Z,9.27
2019-03-19T21:49:10.130Z,10.43
2019-03-19T21:51:37.510Z,10.33
2019-03-19T21:54:06.334Z,9.13
2019-03-19T21:56:33.835Z,7.73
2019-03-19T21:59:01.304Z,6.97
2019-03-19T22:01:28.770Z,6.83
2019-03-19T22:04:03.117Z,7.77
2019-03-19T22:06:26.589Z,13.83
2019-03-19T22:08:53.984Z,11.90
2019-03-19T22:11:21.469Z,7.73
2019-03-19T22:13:48.964Z,7.80
2019-03-19T22:16:16.445Z,7.40
2019-03-19T22:18:44.057Z,9.33
2019-03-19T22:21:11.520Z,8.90
2019-03-19T22:23:38.990Z,7.23
2019-03-19T22:26:06.460Z,6.97
2019-03-19T22:28:33.957Z,11.07
2019-03-19T22:31:01.555Z,9.77
2019-03-19T22:33:29.081Z,7.17
2019-03-19T22:35:56.540Z,10.10
2019-03-19T22:38:23.959Z,9.10
2019-03-19T22:40:51.426Z,12.60
2019-03-19T22:43:19.088Z,9.80
2019-03-19T22:45:46.557Z,7.27
2019-03-19T22:48:14.070Z,7.73
2019-03-19T22:50:41.530Z,6.57
2019-03-19T22:53:08.921Z,12.80
2019-03-19T22:55:36.425Z,6.77
2019-03-19T22:58:03.863Z,11.13
2019-03-19T23:00:44.851Z,10.23
2019-03-19T23:03:12.298Z,5.43
2019-03-19T23:05:39.792Z,7.57
2019-03-19T23:08:07.161Z,8.03
2019-03-19T23:10:34.668Z,8.93
2019-03-19T23:13:02.025Z,9.63
2019-03-19T23:15:29.485Z,8.80
2019-03-19T23:17:56.867Z,7.67
2019-03-19T23:20:24.380Z,10.40
2019-03-19T23:22:51.894Z,7.17
2019-03-19T23:25:19.954Z,11.37
2019-03-19T23:27:47.423Z,9.77
2019-03-19T23:30:14.968Z,10.83
2019-03-19T23:32:42.400Z,9.07
2019-03-19T23:35:10.029Z,8.77
2019-03-19T23:37:37.503Z,8.50
2019-03-19T23:40:05.153Z,10.97
2019-03-19T23:42:32.640Z,7.87
2019-03-19T23:45:00.341Z,7.83
2019-03-19T23:47:27.956Z,7.53
2019-03-19T23:49:55.343Z,11.07
2019-03-19T23:52:22.752Z,11.17
2019-03-19T23:54:50.201Z,8.23
2019-03-19T23:57:17.667Z,7.87
2019-03-19T23:59:45.156Z,6.93
